createdAt,value
2022-08-21T00:02:18.092Z,0.70
2022-08-21T00:04:57.278Z,0.70
2022-08-21T00:07:22.520Z,0.50
2022-08-21T00:09:55.102Z,1.10
2022-08-21T00:12:25.835Z,0.50
2022-08-21T00:14:58.021Z,0.60
2022-08-21T00:17:28.905Z,0.57
2022-08-21T00:19:59.520Z,0.70
2022-08-21T00:22:30.077Z,0.60
2022-08-21T00:25:00.815Z,0.70
2022-08-21T00:27:31.544Z,0.53
2022-08-21T00:30:02.128Z,0.50
2022-08-21T00:32:34.174Z,0.60
2022-08-21T00:35:06.039Z,0.67
2022-08-21T00:37:36.850Z,1.10
2022-08-21T00:40:11.934Z,0.50
2022-08-21T00:42:42.850Z,0.70
2022-08-21T00:45:14.792Z,0.50
2022-08-21T00:47:45.505Z,0.50
2022-08-21T00:50:21.678Z,0.63
2022-08-21T00:52:49.707Z,0.70
2022-08-21T00:55:23.449Z,0.53
2022-08-21T00:57:57.575Z,0.80
2022-08-21T01:00:30.838Z,1.03
2022-08-21T01:03:03.190Z,0.83
2022-08-21T01:05:36.570Z,0.70
2022-08-21T01:08:08.607Z,0.80
2022-08-21T01:10:40.159Z,0.87
2022-08-21T01:13:14.787Z,0.80
2022-08-21T01:15:48.329Z,0.93
2022-08-21T01:18:20.451Z,0.67
2022-08-21T01:21:05.309Z,0.53
2022-08-21T01:23:37.022Z,1.27
2022-08-21T01:26:09.543Z,0.50
2022-08-21T01:28:44.228Z,0.70
2022-08-21T01:31:17.246Z,0.67
2022-08-21T01:33:49.508Z,0.70
2022-08-21T01:36:20.837Z,0.90
2022-08-21T01:38:52.128Z,0.57
2022-08-21T01:41:22.740Z,0.80
2022-08-21T01:43:53.537Z,0.83
2022-08-21T01:46:24.482Z,0.90
2022-08-21T01:48:55.188Z,1.00
2022-08-21T01:51:25.849Z,0.70
2022-08-21T01:53:56.493Z,0.60
2022-08-21T01:56:28.990Z,0.67
2022-08-21T01:58:59.784Z,1.33
2022-08-21T02:01:30.416Z,0.80
2022-08-21T02:04:01.363Z,1.20
2022-08-21T02:06:32.050Z,0.80
2022-08-21T02:09:02.823Z,0.77
2022-08-21T02:11:33.554Z,0.70
2022-08-21T02:14:04.236Z,0.60
2022-08-21T02:16:34.939Z,1.37
2022-08-21T02:19:06.047Z,0.70
2022-08-21T02:21:36.733Z,0.83
2022-08-21T02:24:09.057Z,0.50
2022-08-21T02:26:39.730Z,0.77
2022-08-21T02:29:10.743Z,0.87
2022-08-21T02:31:41.407Z,0.90
2022-08-21T02:34:12.052Z,1.00
2022-08-21T02:36:42.673Z,0.70
2022-08-21T02:39:13.268Z,0.70
2022-08-21T02:41:44.652Z,0.70
2022-08-21T02:44:15.267Z,0.73
2022-08-21T02:46:45.882Z,0.90
2022-08-21T02:49:16.460Z,0.77
2022-08-21T02:51:47.066Z,0.80
2022-08-21T02:54:17.650Z,0.70
2022-08-21T02:56:48.418Z,0.63
2022-08-21T02:59:19.142Z,0.70
2022-08-21T03:01:50.237Z,0.70
2022-08-21T03:04:21.056Z,0.87
2022-08-21T03:06:51.835Z,0.70
2022-08-21T03:09:22.488Z,0.70
2022-08-21T03:11:53.171Z,0.80
2022-08-21T03:14:23.745Z,0.70
2022-08-21T03:16:54.454Z,0.60
2022-08-21T03:19:25.056Z,0.90
2022-08-21T03:21:55.788Z,0.67
2022-08-21T03:24:26.465Z,0.70
2022-08-21T03:26:57.139Z,0.87
2022-08-21T03:29:27.848Z,0.80
2022-08-21T03:31:58.573Z,0.90
2022-08-21T03:34:29.244Z,0.93
2022-08-21T03:37:00.940Z,0.80
2022-08-21T03:39:32.037Z,0.90
2022-08-21T03:42:02.714Z,1.27
2022-08-21T03:44:33.421Z,1.10
2022-08-21T03:47:05.006Z,0.83
2022-08-21T03:49:35.983Z,0.97
2022-08-21T03:52:07.321Z,0.90
2022-08-21T03:54:38.029Z,0.70
2022-08-21T03:57:08.710Z,0.87
2022-08-21T03:59:41.024Z,0.87
2022-08-21T04:02:12.555Z,0.73
2022-08-21T04:04:43.143Z,0.90
2022-08-21T04:07:13.746Z,0.70
2022-08-21T04:09:44.361Z,0.87
2022-08-21T04:12:14.921Z,1.03
2022-08-21T04:14:45.570Z,0.80
2022-08-21T04:17:16.268Z,1.20
2022-08-21T04:19:49.363Z,1.00
2022-08-21T04:22:19.452Z,0.90
2022-08-21T04:24:51.050Z,0.90
2022-08-21T04:27:21.666Z,0.87
2022-08-21T04:29:52.280Z,0.90
2022-08-21T04:32:26.037Z,0.90
2022-08-21T04:35:02.730Z,1.00
2022-08-21T04:37:34.277Z,1.37
2022-08-21T04:40:10.047Z,1.07
2022-08-21T04:42:46.933Z,0.80
2022-08-21T04:45:23.650Z,0.77
2022-08-21T04:47:56.796Z,1.10
2022-08-21T04:50:31.105Z,1.00
2022-08-21T04:53:02.503Z,0.87
2022-08-21T04:55:33.750Z,0.93
2022-08-21T04:58:04.774Z,0.90
2022-08-21T05:00:35.637Z,1.03
2022-08-21T05:03:08.650Z,0.80
2022-08-21T05:05:39.611Z,0.90
2022-08-21T05:08:13.005Z,0.97
2022-08-21T05:10:44.281Z,0.90
2022-08-21T05:13:15.867Z,0.97
2022-08-21T05:15:46.645Z,0.80
2022-08-21T05:18:17.623Z,1.00
2022-08-21T05:20:48.256Z,1.10
2022-08-21T05:23:19.369Z,1.00
2022-08-21T05:25:50.082Z,1.10
2022-08-21T05:28:20.974Z,0.90
2022-08-21T05:30:51.908Z,1.00
2022-08-21T05:33:22.556Z,1.20
2022-08-21T05:35:56.776Z,0.83
2022-08-21T05:38:28.483Z,0.97
2022-08-21T05:40:59.418Z,1.10
2022-08-21T05:43:30.277Z,0.60
2022-08-21T05:46:00.982Z,1.10
2022-08-21T05:48:31.672Z,0.83
2022-08-21T05:51:07.690Z,1.03
2022-08-21T05:53:39.272Z,1.00
2022-08-21T05:56:10.050Z,1.10
2022-08-21T05:58:41.194Z,1.50
2022-08-21T06:01:12.768Z,1.07
2022-08-21T06:03:44.396Z,1.20
2022-08-21T06:06:15.112Z,1.40
2022-08-21T06:08:47.719Z,1.10
2022-08-21T06:11:20.726Z,1.17
2022-08-21T06:13:50.627Z,1.17
2022-08-21T06:16:21.354Z,1.10
2022-08-21T06:18:52.358Z,1.30
2022-08-21T06:21:23.103Z,1.20
2022-08-21T06:23:53.699Z,0.83
2022-08-21T06:26:24.867Z,0.80
2022-08-21T06:28:55.524Z,0.90
2022-08-21T06:31:28.531Z,0.63
2022-08-21T06:33:59.697Z,1.00
2022-08-21T06:36:30.352Z,1.00
2022-08-21T06:39:01.600Z,1.10
2022-08-21T06:41:38.980Z,0.90
2022-08-21T06:44:07.613Z,1.03
2022-08-21T06:46:38.718Z,1.03
2022-08-21T06:49:09.350Z,2.40
2022-08-21T06:51:41.762Z,2.07
2022-08-21T06:54:12.788Z,1.30
2022-08-21T06:56:43.445Z,1.60
2022-08-21T06:59:14.336Z,0.90
2022-08-21T07:01:45.623Z,1.00
2022-08-21T07:04:16.361Z,0.90
2022-08-21T07:06:47.198Z,0.90
2022-08-21T07:09:20.510Z,1.00
2022-08-21T07:11:53.274Z,1.10
2022-08-21T07:14:24.518Z,0.90
2022-08-21T07:16:55.485Z,0.83
2022-08-21T07:19:26.211Z,0.83
2022-08-21T07:22:00.221Z,0.80
2022-08-21T07:24:31.207Z,0.93
2022-08-21T07:27:01.950Z,1.00
2022-08-21T07:29:32.709Z,1.20
2022-08-21T07:32:03.701Z,0.80
2022-08-21T07:34:34.564Z,1.00
2022-08-21T07:37:06.325Z,1.10
2022-08-21T07:39:38.305Z,0.80
2022-08-21T07:42:09.146Z,1.17
2022-08-21T07:44:39.785Z,0.77
2022-08-21T07:47:10.464Z,1.10
2022-08-21T07:49:41.133Z,0.97
2022-08-21T07:52:11.988Z,1.00
2022-08-21T07:54:42.683Z,0.80
2022-08-21T07:57:14.447Z,1.20
2022-08-21T07:59:46.712Z,0.70
2022-08-21T08:02:26.840Z,1.00
2022-08-21T08:04:59.305Z,1.03
2022-08-21T08:07:30.048Z,0.80
2022-08-21T08:10:00.620Z,0.90
2022-08-21T08:12:31.383Z,0.90
2022-08-21T08:15:02.910Z,0.83
2022-08-21T08:17:34.161Z,0.83
2022-08-21T08:20:05.870Z,0.90
2022-08-21T08:22:39.256Z,0.90
2022-08-21T08:25:12.684Z,0.77
2022-08-21T08:27:43.522Z,0.97
2022-08-21T08:30:17.304Z,0.90
2022-08-21T08:32:48.563Z,1.07
2022-08-21T08:35:19.389Z,0.87
2022-08-21T08:37:52.598Z,0.93
2022-08-21T08:40:27.249Z,1.00
2022-08-21T08:42:58.274Z,1.70
2022-08-21T08:45:31.442Z,0.73
2022-08-21T08:48:05.490Z,0.90
2022-08-21T08:50:56.086Z,1.20
2022-08-21T08:53:29.813Z,1.30
2022-08-21T08:56:03.237Z,1.20
2022-08-21T08:58:36.760Z,0.90
2022-08-21T09:01:10.806Z,1.00
2022-08-21T09:03:43.160Z,0.83
2022-08-21T09:06:17.478Z,0.87
2022-08-21T09:08:52.869Z,0.70
2022-08-21T09:14:12.717Z,0.97
2022-08-21T09:16:47.573Z,1.60
2022-08-21T09:19:27.498Z,1.23
2022-08-21T09:22:02.356Z,1.00
2022-08-21T09:24:37.697Z,0.90
2022-08-21T09:27:11.800Z,1.00
2022-08-21T09:29:45.522Z,0.83
2022-08-21T09:32:19.561Z,0.93
2022-08-21T09:35:02.744Z,0.90
2022-08-21T09:37:36.391Z,1.00
2022-08-21T09:40:18.724Z,1.13
2022-08-21T09:42:57.436Z,1.33
2022-08-21T09:45:28.830Z,0.95
2022-08-21T09:48:11.384Z,1.12
2022-08-21T09:50:43.074Z,1.00
2022-08-21T09:53:21.461Z,1.10
2022-08-21T09:56:13.781Z,0.98
2022-08-21T09:58:46.674Z,1.10
2022-08-21T10:01:19.789Z,1.10
2022-08-21T10:03:52.103Z,0.70
2022-08-21T10:06:29.009Z,1.10
2022-08-21T10:09:12.544Z,1.10
2022-08-21T10:11:44.605Z,1.10
2022-08-21T10:14:21.204Z,0.80
2022-08-21T10:16:58.181Z,0.90
2022-08-21T10:19:33.949Z,0.80
2022-08-21T10:22:10.666Z,1.25
2022-08-21T10:24:45.234Z,0.82
2022-08-21T10:27:20.918Z,1.12
2022-08-21T10:29:56.102Z,1.12
2022-08-21T10:32:38.802Z,1.05
2022-08-21T10:35:15.521Z,0.70
2022-08-21T10:37:53.847Z,0.78
2022-08-21T10:43:14.511Z,0.53
2022-08-21T10:45:52.662Z,0.80
2022-08-21T10:48:27.647Z,0.68
2022-08-21T10:51:02.488Z,0.70
2022-08-21T10:53:55.400Z,0.72
2022-08-21T10:56:28.631Z,0.70
2022-08-21T10:59:07.551Z,0.78
2022-08-21T11:01:42.769Z,0.78
2022-08-21T11:04:20.525Z,0.57
2022-08-21T11:06:55.229Z,0.75
2022-08-21T11:09:28.534Z,0.80
2022-08-21T11:12:10.881Z,0.70
2022-08-21T11:14:39.215Z,0.70
2022-08-21T11:17:12.522Z,0.65
2022-08-21T11:22:52.484Z,0.95
2022-08-21T11:25:24.702Z,0.85
2022-08-21T11:27:58.993Z,0.68
2022-08-21T11:30:32.800Z,0.70
2022-08-21T11:33:11.263Z,1.00
2022-08-21T11:35:45.408Z,1.20
2022-08-21T11:38:26.955Z,0.80
2022-08-21T11:41:05.374Z,0.70
2022-08-21T11:43:42.523Z,0.75
2022-08-21T11:46:29.535Z,0.80
2022-08-21T11:49:30.106Z,1.10
2022-08-21T11:54:45.046Z,1.00
2022-08-21T11:57:22.050Z,0.93
2022-08-21T11:59:57.373Z,0.95
2022-08-21T12:02:33.043Z,0.80
2022-08-21T12:05:08.675Z,0.78
2022-08-21T12:07:42.347Z,0.70
2022-08-21T12:10:17.599Z,1.05
2022-08-21T12:12:49.595Z,1.00
2022-08-21T12:15:31.231Z,0.57
2022-08-21T12:18:05.027Z,0.98
2022-08-21T12:20:43.816Z,1.02
2022-08-21T12:23:31.376Z,1.00
2022-08-21T12:26:24.558Z,0.95
2022-08-21T12:29:18.351Z,0.93
2022-08-21T12:31:56.753Z,0.70
2022-08-21T12:34:32.951Z,1.02
2022-08-21T12:37:07.080Z,0.88
2022-08-21T12:39:40.665Z,0.82
2022-08-21T12:44:56.729Z,1.35
2022-08-21T12:47:32.044Z,1.20
2022-08-21T12:50:07.076Z,1.17
2022-08-21T12:52:40.811Z,0.88
2022-08-21T12:57:53.071Z,0.75
2022-08-21T13:00:27.422Z,0.98
2022-08-21T13:03:17.217Z,0.88
2022-08-21T13:05:48.252Z,0.90
2022-08-21T13:08:19.758Z,0.70
2022-08-21T13:10:53.509Z,0.88
2022-08-21T13:13:28.300Z,0.95
2022-08-21T13:16:04.594Z,1.07
2022-08-21T13:18:38.811Z,0.90
2022-08-21T13:21:12.597Z,0.70
2022-08-21T13:23:45.003Z,1.00
2022-08-21T13:26:19.525Z,1.45
2022-08-21T13:28:52.052Z,1.00
2022-08-21T13:31:26.007Z,1.00
2022-08-21T13:33:57.881Z,0.85
2022-08-21T13:36:32.020Z,0.93
2022-08-21T13:39:05.222Z,1.55
2022-08-21T13:41:39.547Z,1.07
2022-08-21T13:44:20.689Z,0.88
2022-08-21T13:47:09.579Z,0.98
2022-08-21T13:50:02.911Z,0.75
2022-08-21T13:52:35.741Z,0.85
2022-08-21T13:57:49.069Z,0.88
2022-08-21T14:00:23.992Z,1.00
2022-08-21T14:02:57.774Z,0.98
2022-08-21T14:05:32.703Z,0.80
2022-08-21T14:08:07.525Z,0.95
2022-08-21T14:10:45.256Z,0.95
2022-08-21T14:13:29.516Z,1.22
2022-08-21T14:16:03.372Z,1.15
2022-08-21T14:18:34.678Z,0.78
2022-08-21T14:21:11.766Z,0.80
2022-08-21T14:23:43.774Z,0.80
2022-08-21T14:26:15.011Z,1.15
2022-08-21T14:28:46.085Z,1.12
2022-08-21T14:31:20.538Z,0.82
2022-08-21T14:33:51.838Z,0.95
2022-08-21T14:36:22.971Z,1.22
2022-08-21T14:38:54.044Z,1.17
2022-08-21T14:41:28.795Z,1.10
2022-08-21T14:44:09.714Z,1.27
2022-08-21T14:46:35.206Z,1.25
2022-08-21T14:49:06.405Z,1.10
2022-08-21T14:54:15.308Z,1.17
2022-08-21T14:56:46.153Z,1.00
2022-08-21T14:59:16.874Z,0.98
2022-08-21T15:01:47.887Z,1.27
2022-08-21T15:04:18.759Z,0.80
2022-08-21T15:06:49.631Z,1.65
2022-08-21T15:09:20.358Z,1.12
2022-08-21T15:11:51.227Z,1.00
2022-08-21T15:14:25.378Z,0.88
2022-08-21T15:16:56.268Z,1.02
2022-08-21T15:19:28.544Z,0.72
2022-08-21T15:22:00.039Z,0.85
2022-08-21T15:24:32.586Z,1.25
2022-08-21T15:27:05.633Z,0.80
2022-08-21T15:29:36.830Z,1.02
2022-08-21T15:32:19.253Z,0.80
2022-08-21T15:34:50.277Z,1.10
2022-08-21T15:37:22.545Z,1.30
2022-08-21T15:39:54.445Z,1.10
2022-08-21T15:42:27.712Z,0.82
2022-08-21T15:44:59.458Z,0.93
2022-08-21T15:47:33.074Z,1.37
2022-08-21T15:50:05.373Z,0.98
2022-08-21T15:52:36.402Z,1.05
2022-08-21T15:55:09.076Z,1.22
2022-08-21T15:57:41.902Z,0.98
2022-08-21T16:00:19.428Z,0.93
2022-08-21T16:02:52.881Z,1.27
2022-08-21T16:05:24.830Z,1.45
2022-08-21T16:07:55.685Z,0.93
2022-08-21T16:10:29.768Z,0.90
2022-08-21T16:13:02.971Z,0.95
2022-08-21T16:15:34.068Z,0.82
2022-08-21T16:18:05.199Z,2.65
2022-08-21T16:20:35.989Z,1.15
2022-08-21T16:23:07.852Z,0.82
2022-08-21T16:25:40.747Z,1.15
2022-08-21T16:28:14.152Z,0.90
2022-08-21T16:30:47.776Z,0.93
2022-08-21T16:33:25.129Z,1.27
2022-08-21T16:35:56.083Z,0.90
2022-08-21T16:38:27.332Z,1.20
2022-08-21T16:40:58.390Z,0.80
2022-08-21T16:43:31.917Z,0.98
2022-08-21T16:46:03.684Z,0.93
2022-08-21T16:48:35.421Z,1.10
2022-08-21T16:51:08.269Z,1.25
2022-08-21T16:53:39.258Z,1.15
2022-08-21T16:56:10.869Z,0.82
2022-08-21T16:58:44.336Z,0.90
2022-08-21T17:01:18.002Z,1.75
2022-08-21T17:03:51.447Z,1.05
2022-08-21T17:06:23.680Z,1.20
2022-08-21T17:08:56.225Z,1.60
2022-08-21T17:11:37.127Z,1.40
2022-08-21T17:14:05.765Z,1.30
2022-08-21T17:16:36.993Z,1.23
2022-08-21T17:19:08.273Z,1.22
2022-08-21T17:21:39.433Z,1.22
2022-08-21T17:24:10.620Z,1.50
2022-08-21T17:26:41.751Z,1.37
2022-08-21T17:29:14.808Z,1.70
2022-08-21T17:31:47.133Z,1.30
2022-08-21T17:34:18.546Z,1.40
2022-08-21T17:36:49.643Z,1.57
2022-08-21T17:39:22.341Z,1.43
2022-08-21T17:41:57.724Z,1.33
2022-08-21T17:44:46.562Z,1.37
2022-08-21T17:47:17.567Z,1.43
2022-08-21T17:49:48.278Z,1.37
2022-08-21T17:52:19.317Z,1.73
2022-08-21T17:54:50.003Z,1.47
2022-08-21T17:57:24.460Z,1.37
2022-08-21T17:59:58.368Z,1.97
2022-08-21T18:02:28.169Z,1.73
2022-08-21T18:04:58.994Z,1.70
2022-08-21T18:07:32.779Z,1.80
2022-08-21T18:10:02.562Z,1.60
2022-08-21T18:12:33.795Z,2.00
2022-08-21T18:15:05.886Z,1.73
2022-08-21T18:17:37.472Z,1.70
2022-08-21T18:20:10.733Z,1.53
2022-08-21T18:25:19.394Z,1.57
2022-08-21T18:27:51.022Z,1.70
2022-08-21T18:30:23.886Z,1.67
2022-08-21T18:32:56.091Z,1.73
2022-08-21T18:35:26.838Z,1.63
2022-08-21T18:37:57.580Z,1.67
2022-08-21T18:40:28.599Z,1.77
2022-08-21T18:43:01.717Z,1.90
2022-08-21T18:45:32.526Z,1.60
2022-08-21T18:48:04.008Z,1.63
2022-08-21T18:50:36.326Z,1.80
2022-08-21T18:53:24.041Z,1.93
2022-08-21T18:55:42.755Z,1.97
2022-08-21T18:58:14.905Z,1.67
2022-08-21T19:00:48.130Z,2.07
2022-08-21T19:03:23.843Z,1.90
2022-08-21T19:05:56.142Z,1.80
2022-08-21T19:11:06.859Z,2.00
2022-08-21T19:13:38.109Z,1.53
2022-08-21T19:16:10.729Z,1.60
2022-08-21T19:18:43.376Z,1.80
2022-08-21T19:21:14.548Z,1.90
2022-08-21T19:23:47.273Z,1.93
2022-08-21T19:26:22.080Z,1.53
2022-08-21T19:28:54.776Z,1.80
2022-08-21T19:31:29.724Z,1.70
2022-08-21T19:34:05.332Z,2.00
2022-08-21T19:36:36.799Z,2.03
2022-08-21T19:39:09.562Z,1.67
2022-08-21T19:41:42.870Z,1.63
2022-08-21T19:44:16.544Z,2.10
2022-08-21T19:46:51.150Z,1.93
2022-08-21T19:49:24.073Z,2.00
2022-08-21T19:51:55.234Z,1.80
2022-08-21T19:54:29.569Z,1.83
2022-08-21T19:57:03.672Z,1.97
2022-08-21T19:59:36.846Z,1.87
2022-08-21T20:02:09.435Z,2.03
2022-08-21T20:04:40.614Z,2.10
2022-08-21T20:07:13.126Z,2.33
2022-08-21T20:09:44.066Z,2.10
2022-08-21T20:12:16.464Z,1.80
2022-08-21T20:14:49.339Z,1.90
2022-08-21T20:17:22.510Z,2.10
2022-08-21T20:19:55.171Z,2.00
2022-08-21T20:22:26.315Z,1.90
2022-08-21T20:27:40.409Z,1.87
2022-08-21T20:30:11.648Z,2.30
2022-08-21T20:32:43.488Z,2.03
2022-08-21T20:35:14.338Z,1.87
2022-08-21T20:37:44.952Z,1.90
2022-08-21T20:40:21.043Z,2.03
2022-08-21T20:42:53.554Z,1.90
2022-08-21T20:45:27.169Z,2.07
2022-08-21T20:50:40.547Z,2.50
2022-08-21T20:53:14.869Z,1.90
2022-08-21T20:55:49.131Z,2.07
2022-08-21T20:58:24.677Z,2.07
2022-08-21T21:00:59.413Z,2.10
2022-08-21T21:03:34.488Z,1.90
2022-08-21T21:06:08.406Z,1.87
2022-08-21T21:11:18.449Z,1.90
2022-08-21T21:13:52.537Z,2.10
2022-08-21T21:16:27.367Z,1.63
2022-08-21T21:19:01.099Z,1.70
2022-08-21T21:21:34.902Z,2.00
2022-08-21T21:24:09.250Z,1.97
2022-08-21T21:29:20.276Z,1.67
2022-08-21T21:31:53.963Z,1.83
2022-08-21T21:37:00.785Z,1.90
2022-08-21T21:39:36.415Z,2.20
2022-08-21T21:42:10.644Z,1.90
2022-08-21T21:44:51.566Z,2.10
2022-08-21T21:47:27.210Z,2.30
2022-08-21T21:50:18.819Z,2.00
2022-08-21T21:52:52.230Z,2.40
2022-08-21T21:55:34.983Z,1.97
2022-08-21T21:58:30.282Z,1.90
2022-08-21T22:01:06.317Z,1.93
2022-08-21T22:03:40.275Z,1.70
2022-08-21T22:06:14.026Z,1.90
2022-08-21T22:08:48.866Z,1.83
2022-08-21T22:11:29.389Z,1.80
2022-08-21T22:14:02.967Z,1.80
2022-08-21T22:16:35.781Z,1.60
2022-08-21T22:19:13.687Z,1.90
2022-08-21T22:21:46.552Z,1.50
2022-08-21T22:24:20.445Z,1.43
2022-08-21T22:26:54.351Z,1.47
2022-08-21T22:29:26.790Z,1.27
2022-08-21T22:32:06.789Z,1.40
2022-08-21T22:34:37.605Z,1.60
2022-08-21T22:37:13.057Z,1.50
2022-08-21T22:39:46.231Z,1.80
2022-08-21T22:42:23.741Z,1.60
2022-08-21T22:44:57.909Z,1.60
2022-08-21T22:47:34.610Z,1.63
2022-08-21T22:50:08.551Z,1.57
2022-08-21T22:52:43.574Z,1.40
2022-08-21T22:55:24.745Z,1.67
2022-08-21T22:58:09.223Z,1.50
2022-08-21T23:00:45.387Z,1.60
2022-08-21T23:03:32.702Z,1.80
2022-08-21T23:06:11.482Z,1.90
2022-08-21T23:08:39.910Z,1.60
2022-08-21T23:11:14.706Z,1.50
2022-08-21T23:13:47.457Z,1.97
2022-08-21T23:16:32.181Z,1.63
2022-08-21T23:19:06.740Z,1.43
2022-08-21T23:21:41.621Z,1.80
2022-08-21T23:24:23.731Z,1.83
2022-08-21T23:26:57.870Z,1.70
2022-08-21T23:29:32.411Z,1.90
2022-08-21T23:32:08.516Z,1.67
2022-08-21T23:34:44.018Z,1.23
2022-08-21T23:37:49.187Z,1.80
2022-08-21T23:40:35.770Z,1.50
2022-08-21T23:43:14.125Z,1.63
2022-08-21T23:45:49.728Z,1.60
2022-08-21T23:51:00.975Z,1.80
2022-08-21T23:53:36.716Z,1.57
2022-08-21T23:56:14.954Z,2.20
2022-08-21T23:58:50.557Z,1.73
